Bad Nation, South Dakota
Current Conditions -  °F | °C
As of 1:53 AM on Friday 31 Oct 2014 (Local Time) from KICR Reporting Station
Overcast Overcast  
Wind Chill: 20°   Ceiling: 2000
Heat Index: 29°   Visibility: 10mi
Dew Point: 21°   Wind: 10mph
Humidity: 72%   Direction: 40°NE
Pressure: 30.56"   Gusts: NA
Location:  43.5595°N, 100.408°W
Report Text: KICR 310653Z AUTO 04009KT 10SM OVC020 M02/M06 A3056 RMK AO2 SLP363 T10171061
Loading
Personal Weather Stations






























Interactive Weather Map
Tropical Storm Tracking
New forecast layout! Learn more

10-Day Weather Forecast

Advertisements
Track Severe Weather on mobile